Time;durP1;ratioP1;P1;durP2;ratioP2;P2;SDS_P1;SDS_P2;PMS_P1;PMS_P2;Temp;Humidity;BMP_temperature;BMP_pressure;BME280_temperature;BME280_humidity;BME280_pressure;Samples;Min_cycle;Max_cycle;Signal;HPM_P1;HPM_P2
2023/06/04 00:02:16;;;;;;;9.75;3.30;;;;;;;13.32;100.00;92601.97;5067738;28;20036;-75
2023/06/04 00:04:42;;;;;;;6.07;3.10;;;;;;;13.32;100.00;92607.25;5074504;28;20112;-75
2023/06/04 00:07:07;;;;;;;7.57;3.42;;;;;;;13.27;100.00;92598.69;5073118;28;20090;-74
2023/06/04 00:09:33;;;;;;;7.05;4.53;;;;;;;13.26;100.00;92597.13;5055185;28;20052;-75
2023/06/04 00:11:58;;;;;;;10.00;4.22;;;;;;;13.26;100.00;92592.66;5055433;28;20044;-74
2023/06/04 00:14:24;;;;;;;8.05;5.05;;;;;;;13.26;100.00;92594.50;5055258;28;20033;-74
2023/06/04 00:16:49;;;;;;;7.53;4.32;;;;;;;13.27;100.00;92593.44;5071934;28;20429;-75
2023/06/04 00:19:15;;;;;;;8.43;4.97;;;;;;;13.28;100.00;92592.38;5073014;28;20029;-75
2023/06/04 00:21:40;;;;;;;9.75;4.90;;;;;;;13.29;100.00;92588.69;5038563;28;20037;-75
2023/06/04 00:24:06;;;;;;;9.93;4.40;;;;;;;13.23;100.00;92587.97;5054846;28;20040;-74
2023/06/04 00:26:32;;;;;;;7.55;4.30;;;;;;;13.23;100.00;92581.94;5073083;28;20055;-75
2023/06/04 00:28:58;;;;;;;6.13;3.78;;;;;;;13.23;100.00;92581.94;5072803;28;20474;-74
2023/06/04 00:31:24;;;;;;;6.15;4.03;;;;;;;13.22;100.00;92586.44;5038291;28;20037;-75
2023/06/04 00:33:50;;;;;;;6.85;3.90;;;;;;;13.21;100.00;92584.88;5055122;28;20041;-74
2023/06/04 00:36:15;;;;;;;8.07;3.72;;;;;;;13.19;100.00;92589.66;5055026;28;20035;-74
2023/06/04 00:38:41;;;;;;;6.50;4.07;;;;;;;13.17;100.00;92594.47;5038142;28;20036;-75
2023/06/04 00:41:07;;;;;;;6.63;3.95;;;;;;;13.16;100.00;92597.38;5038265;28;20052;-75
2023/06/04 00:43:33;;;;;;;7.22;3.85;;;;;;;13.15;100.00;92590.53;5072105;28;20020;-74
2023/06/04 00:46:00;;;;;;;8.27;4.10;;;;;;;13.12;100.00;92592.69;5038016;28;20036;-74
2023/06/04 00:48:27;;;;;;;9.85;3.97;;;;;;;13.08;100.00;92597.03;5054808;28;20133;-74
2023/06/04 00:50:54;;;;;;;6.90;4.25;;;;;;;13.08;100.00;92591.75;5037975;28;20059;-74
2023/06/04 00:53:22;;;;;;;10.18;4.28;;;;;;;13.10;100.00;92594.88;5072158;28;20056;-75
2023/06/04 00:55:48;;;;;;;6.97;4.03;;;;;;;13.08;100.00;92589.13;5072393;28;20433;-75
2023/06/04 00:58:15;;;;;;;9.93;3.92;;;;;;;13.07;100.00;92592.81;5054429;28;20035;-75
2023/06/04 01:00:42;;;;;;;6.53;3.67;;;;;;;13.04;100.00;92590.03;5037798;28;20036;-75
2023/06/04 01:03:18;;;;;;;6.55;3.58;;;;;;;13.01;100.00;92596.63;5054207;28;20071;-75
2023/06/04 01:05:56;;;;;;;9.55;4.28;;;;;;;12.99;100.00;92588.28;5072169;28;20579;-75
2023/06/04 01:08:23;;;;;;;7.18;4.32;;;;;;;12.99;100.00;92598.81;5037547;28;20033;-75
2023/06/04 01:10:53;;;;;;;7.13;4.10;;;;;;;13.00;100.00;92602.22;5072221;28;20421;-74
2023/06/04 01:13:19;;;;;;;6.38;4.03;;;;;;;12.98;100.00;92591.97;5054124;28;20533;-75
2023/06/04 01:15:45;;;;;;;7.03;4.40;;;;;;;12.96;100.00;92594.13;5053985;28;20147;-75
2023/06/04 01:18:27;;;;;;;7.50;4.22;;;;;;;12.95;100.00;92591.78;5071926;28;20037;-75
2023/06/04 01:20:58;;;;;;;7.22;4.03;;;;;;;12.96;100.00;92582.84;5071729;28;20119;-74
2023/06/04 01:23:33;;;;;;;7.88;4.25;;;;;;;12.96;100.00;92588.09;5053960;28;20379;-75
2023/06/04 01:26:03;;;;;;;8.52;3.90;;;;;;;12.92;100.00;92587.91;5072174;28;20040;-75
2023/06/04 01:28:30;;;;;;;8.00;4.30;;;;;;;12.92;100.00;92590.53;5053377;28;20032;-75
2023/06/04 01:30:56;;;;;;;7.93;4.40;;;;;;;12.94;100.00;92590.25;5053825;28;20040;-74
2023/06/04 01:33:22;;;;;;;8.02;4.90;;;;;;;12.92;100.00;92593.16;5071500;28;20051;-75
2023/06/04 01:35:49;;;;;;;9.70;4.57;;;;;;;12.95;100.00;92592.59;5071541;28;20063;-74
2023/06/04 01:38:15;;;;;;;7.28;4.63;;;;;;;12.97;100.00;92598.31;5054000;28;20037;-75
2023/06/04 01:40:41;;;;;;;8.73;4.70;;;;;;;12.95;100.00;92599.66;5053394;28;20045;-75
2023/06/04 01:43:07;;;;;;;13.20;4.95;;;;;;;12.87;100.00;92601.94;5053802;28;20036;-74
2023/06/04 01:45:33;;;;;;;7.32;4.40;;;;;;;12.88;100.00;92597.47;5053220;28;20116;-74
2023/06/04 01:48:01;;;;;;;10.80;4.82;;;;;;;12.83;100.00;92597.56;5071290;28;20032;-74
2023/06/04 01:50:27;;;;;;;11.35;4.80;;;;;;;12.85;100.00;92595.44;5053757;28;20478;-75
2023/06/04 01:52:54;;;;;;;8.07;4.97;;;;;;;12.81;100.00;92597.88;5071290;28;20054;-74
2023/06/04 01:55:20;;;;;;;9.93;5.03;;;;;;;12.79;100.00;92599.25;5036774;28;20034;-75
2023/06/04 01:57:50;;;;;;;14.65;5.05;;;;;;;12.82;100.00;92591.56;5036844;28;20059;-74
2023/06/04 02:00:16;;;;;;;10.75;4.82;;;;;;;12.82;100.00;92588.16;5036951;28;20036;-74
2023/06/04 02:02:45;;;;;;;13.05;5.72;;;;;;;12.81;100.00;92582.13;5071060;28;20141;-75
2023/06/04 02:05:11;;;;;;;11.55;5.30;;;;;;;12.81;100.00;92586.59;5071141;28;20041;-74
2023/06/04 02:07:38;;;;;;;11.60;5.65;;;;;;;12.82;100.00;92585.53;5053123;28;20044;-74
2023/06/04 02:10:06;;;;;;;9.55;5.25;;;;;;;12.83;100.00;92587.06;5052936;28;20044;-74
2023/06/04 02:12:32;;;;;;;9.70;5.32;;;;;;;12.87;100.00;92577.53;5053080;28;20045;-74
2023/06/04 02:14:57;;;;;;;14.50;5.70;;;;;;;12.86;100.00;92589.88;5070941;28;20108;-75
2023/06/04 02:17:23;;;;;;;13.95;5.32;;;;;;;12.84;100.00;92596.53;5052927;28;20048;-75
2023/06/04 02:19:51;;;;;;;8.95;5.30;;;;;;;12.82;100.00;92588.16;5071063;28;20397;-75
2023/06/04 02:22:18;;;;;;;10.23;5.80;;;;;;;12.78;100.00;92590.59;5071093;28;20066;-75
2023/06/04 02:24:44;;;;;;;10.10;5.65;;;;;;;12.77;100.00;92588.28;5052842;28;20135;-74
2023/06/04 02:27:11;;;;;;;13.25;5.90;;;;;;;12.79;100.00;92600.03;5071358;28;20120;-74
2023/06/04 02:29:37;;;;;;;9.70;5.57;;;;;;;12.80;100.00;92600.81;5053019;28;20036;-74
2023/06/04 02:32:03;;;;;;;9.57;5.38;;;;;;;12.79;100.00;92604.50;5052779;28;20808;-74
2023/06/04 02:34:29;;;;;;;11.93;5.93;;;;;;;12.77;100.00;92606.66;5053069;28;20033;-74
2023/06/04 02:36:55;;;;;;;9.63;5.45;;;;;;;12.79;100.00;92607.13;5052964;28;20607;-75
2023/06/04 02:39:21;;;;;;;9.75;5.63;;;;;;;12.78;100.00;92613.47;5054185;28;20486;-74
2023/06/04 02:41:46;;;;;;;10.43;5.60;;;;;;;12.79;100.00;92618.44;5074934;28;20040;-75
2023/06/04 02:44:12;;;;;;;11.43;5.80;;;;;;;12.80;100.00;92616.56;5040108;28;20029;-75
2023/06/04 02:46:38;;;;;;;11.52;5.80;;;;;;;12.82;100.00;92619.69;5056927;28;20036;-75
2023/06/04 02:49:04;;;;;;;10.27;6.07;;;;;;;12.81;100.00;92623.34;5057305;28;20427;-75
2023/06/04 02:51:31;;;;;;;9.95;5.32;;;;;;;12.78;100.00;92618.72;5056842;28;20154;-74
2023/06/04 02:53:56;;;;;;;10.20;6.28;;;;;;;12.74;100.00;92620.38;5056923;28;20353;-75
2023/06/04 02:56:22;;;;;;;17.88;6.10;;;;;;;12.69;100.00;92614.16;5074724;28;20379;-74
2023/06/04 02:58:55;;;;;;;9.18;5.78;;;;;;;12.72;100.00;92625.91;5040311;28;20051;-75
2023/06/04 03:01:25;;;;;;;11.40;5.65;;;;;;;12.71;100.00;92621.75;5056523;28;20033;-74
2023/06/04 03:03:53;;;;;;;11.50;6.05;;;;;;;12.71;100.00;92625.13;5056503;28;20047;-74
2023/06/04 03:06:20;;;;;;;11.43;5.90;;;;;;;12.70;100.00;92628.06;5056613;28;20028;-74
2023/06/04 03:08:50;;;;;;;12.35;5.60;;;;;;;12.69;100.00;92626.50;5057455;28;20055;-75
2023/06/04 03:11:22;;;;;;;16.80;5.75;;;;;;;12.68;100.00;92619.72;5073290;28;20043;-74
2023/06/04 03:13:48;;;;;;;11.15;5.93;;;;;;;12.67;100.00;92616.28;5074218;28;20033;-74
2023/06/04 03:16:14;;;;;;;14.25;5.55;;;;;;;12.67;100.00;92624.16;5073077;28;20031;-75
2023/06/04 03:18:41;;;;;;;16.60;5.65;;;;;;;12.68;100.00;92625.75;5056248;28;20044;-74
2023/06/04 03:21:07;;;;;;;15.70;6.50;;;;;;;12.66;100.00;92633.13;5072836;28;20409;-74
2023/06/04 03:23:34;;;;;;;23.30;6.38;;;;;;;12.65;100.00;92634.22;5073948;28;20043;-74
2023/06/04 03:26:03;;;;;;;16.13;6.10;;;;;;;12.61;100.00;92633.25;5074024;28;20060;-75
2023/06/04 03:28:30;;;;;;;9.55;5.45;;;;;;;12.61;100.00;92630.63;5073968;28;20105;-75
2023/06/04 03:30:55;;;;;;;13.75;5.80;;;;;;;12.57;100.00;92629.66;5072723;28;20649;-75
2023/06/04 03:33:23;;;;;;;15.35;6.30;;;;;;;12.57;100.00;92637.53;5072451;28;20033;-75
2023/06/04 03:35:52;;;;;;;13.52;5.85;;;;;;;12.57;100.00;92636.75;5072485;28;20039;-75
2023/06/04 03:38:18;;;;;;;14.10;6.32;;;;;;;12.55;100.00;92637.03;5072432;28;20048;-74
2023/06/04 03:40:45;;;;;;;13.75;6.82;;;;;;;12.56;100.00;92637.81;5072414;28;20509;-74
2023/06/04 03:43:12;;;;;;;18.00;6.25;;;;;;;12.54;100.00;92645.19;5072466;28;20479;-74
2023/06/04 03:45:38;;;;;;;14.50;6.30;;;;;;;12.59;100.00;92643.25;5055421;28;20115;-74
2023/06/04 03:48:04;;;;;;;15.30;6.10;;;;;;;12.59;100.00;92645.88;5055926;28;20418;-74
2023/06/04 03:50:30;;;;;;;15.52;7.55;;;;;;;12.58;100.00;92652.19;5072258;28;20054;-74
2023/06/04 03:52:56;;;;;;;12.23;6.40;;;;;;;12.59;100.00;92659.03;5072326;28;20123;-74
2023/06/04 03:55:24;;;;;;;11.43;6.57;;;;;;;12.60;100.00;92657.94;5055623;28;20414;-74
2023/06/04 03:57:50;;;;;;;10.93;6.00;;;;;;;12.58;100.00;92657.44;5055664;28;20043;-75
2023/06/04 04:00:16;;;;;;;13.95;6.55;;;;;;;12.58;100.00;92646.94;5072296;28;20028;-74
2023/06/04 04:02:48;;;;;;;16.27;7.22;;;;;;;12.54;100.00;92651.25;5072057;28;20433;-74
2023/06/04 04:05:21;;;;;;;17.52;6.70;;;;;;;12.49;100.00;92648.72;5071903;28;20094;-74
2023/06/04 04:07:48;;;;;;;15.23;6.78;;;;;;;12.43;100.00;92645.41;5071875;28;20036;-75
2023/06/04 04:10:17;;;;;;;18.60;7.80;;;;;;;12.39;100.00;92649.69;5071754;28;20059;-75
2023/06/04 04:12:43;;;;;;;17.20;7.43;;;;;;;12.40;100.00;92645.22;5072560;28;20048;-74
2023/06/04 04:15:09;;;;;;;17.25;6.60;;;;;;;12.40;100.00;92645.22;5055165;28;20043;-74
2023/06/04 04:17:35;;;;;;;18.75;7.38;;;;;;;12.42;100.00;92648.31;5055285;28;20024;-75
2023/06/04 04:20:03;;;;;;;15.25;6.70;;;;;;;12.42;100.00;92646.47;5071916;28;20117;-75
2023/06/04 04:22:31;;;;;;;12.48;6.95;;;;;;;12.43;100.00;92650.66;5062192;28;20045;-80
2023/06/04 04:24:57;;;;;;;13.27;6.70;;;;;;;12.47;100.00;92651.66;5055718;28;20415;-76
2023/06/04 04:27:23;;;;;;;15.55;6.90;;;;;;;12.53;100.00;92639.19;5053261;28;20029;-77
2023/06/04 04:29:50;;;;;;;12.50;7.00;;;;;;;12.57;100.00;92645.41;5071238;28;20425;-76
2023/06/04 04:32:18;;;;;;;14.88;6.80;;;;;;;12.57;100.00;92639.38;5071912;28;20037;-77
2023/06/04 04:34:52;;;;;;;10.85;5.70;;;;;;;12.58;100.00;92640.91;5069520;28;20061;-77
2023/06/04 04:37:23;;;;;;;10.63;6.03;;;;;;;12.54;100.00;92635.50;5065645;28;20422;-76
2023/06/04 04:39:53;;;;;;;15.00;7.00;;;;;;;12.54;100.00;92637.31;5040721;28;20067;-77
2023/06/04 04:42:20;;;;;;;17.75;7.10;;;;;;;12.58;100.00;92633.81;5046179;28;20264;-78
2023/06/04 04:44:50;;;;;;;16.00;6.60;;;;;;;12.58;100.00;92638.28;5060140;28;20060;-79
2023/06/04 04:47:17;;;;;;;14.90;6.30;;;;;;;12.60;100.00;92629.06;5052576;28;20044;-77
2023/06/04 04:49:43;;;;;;;11.52;5.93;;;;;;;12.61;100.00;92633.25;5052883;28;20402;-77
2023/06/04 04:52:09;;;;;;;12.95;6.35;;;;;;;12.60;100.00;92634.31;5062858;28;20036;-77
2023/06/04 04:54:37;;;;;;;12.48;5.68;;;;;;;12.59;100.00;92632.00;5056076;28;20414;-76
2023/06/04 04:57:03;;;;;;;14.15;6.78;;;;;;;12.60;100.00;92623.78;5055963;28;20078;-77
2023/06/04 04:59:29;;;;;;;13.35;6.05;;;;;;;12.59;100.00;92622.25;5049801;28;20035;-76
2023/06/04 05:01:57;;;;;;;12.05;5.70;;;;;;;12.58;100.00;92622.53;5064864;28;20040;-76
2023/06/04 05:04:23;;;;;;;10.90;5.43;;;;;;;12.62;100.00;92616.41;5047213;28;20037;-76
2023/06/04 05:06:48;;;;;;;12.93;6.45;;;;;;;12.60;100.00;92621.16;5042421;28;20033;-76
2023/06/04 05:09:15;;;;;;;14.65;6.15;;;;;;;12.63;100.00;92622.44;5071916;28;20049;-76
2023/06/04 05:11:41;;;;;;;9.98;5.80;;;;;;;12.61;100.00;92617.50;5071906;28;20031;-76
2023/06/04 05:14:07;;;;;;;11.35;5.90;;;;;;;12.63;100.00;92617.97;5040143;28;20037;-76
2023/06/04 05:16:37;;;;;;;11.10;6.10;;;;;;;12.66;100.00;92613.97;5053263;28;20032;-76
2023/06/04 05:19:05;;;;;;;10.85;5.75;;;;;;;12.65;100.00;92625.53;5054137;28;20171;-76
2023/06/04 05:21:36;;;;;;;8.23;4.75;;;;;;;12.68;100.00;92625.75;5054569;28;20047;-76
2023/06/04 05:24:04;;;;;;;12.18;4.80;;;;;;;12.66;100.00;92617.38;5058138;28;20060;-76
2023/06/04 05:26:33;;;;;;;11.70;5.00;;;;;;;12.66;100.00;92624.47;5055824;28;20066;-76
2023/06/04 05:29:04;;;;;;;10.10;5.10;;;;;;;12.67;100.00;92623.41;5039697;28;20048;-76
2023/06/04 05:31:34;;;;;;;11.98;4.80;;;;;;;12.68;100.00;92628.38;5068130;28;20036;-76
2023/06/04 05:34:04;;;;;;;10.13;5.05;;;;;;;12.70;100.00;92626.22;5073948;28;20028;-76
2023/06/04 05:36:31;;;;;;;10.40;4.90;;;;;;;12.74;100.00;92628.25;5042276;28;20025;-76
2023/06/04 05:38:59;;;;;;;10.18;5.03;;;;;;;12.75;100.00;92637.69;5076832;28;20062;-76
2023/06/04 05:41:35;;;;;;;8.57;4.55;;;;;;;12.73;100.00;92632.72;5050093;28;20036;-76
2023/06/04 05:44:02;;;;;;;9.25;5.10;;;;;;;12.88;100.00;92634.25;5058642;28;20044;-76
2023/06/04 05:46:28;;;;;;;9.90;4.82;;;;;;;12.78;100.00;92632.63;5053435;28;20513;-76
2023/06/04 05:48:54;;;;;;;11.88;5.13;;;;;;;12.75;100.00;92629.81;5063584;28;20036;-76
2023/06/04 05:51:21;;;;;;;10.90;5.30;;;;;;;12.71;100.00;92633.00;5061896;28;20539;-76
2023/06/04 05:53:47;;;;;;;9.23;4.90;;;;;;;12.98;100.00;92633.25;5069771;28;20024;-76
2023/06/04 05:56:13;;;;;;;11.77;5.10;;;;;;;12.81;100.00;92628.63;5063127;28;20039;-76
2023/06/04 05:58:39;;;;;;;10.77;5.40;;;;;;;12.77;100.00;92627.69;5065972;28;20040;-76
2023/06/04 06:01:06;;;;;;;10.02;5.45;;;;;;;12.76;100.00;92631.34;5056127;28;20032;-76
2023/06/04 06:03:32;;;;;;;10.63;4.80;;;;;;;12.80;100.00;92627.84;5058988;28;20031;-76
2023/06/04 06:05:59;;;;;;;9.23;4.88;;;;;;;12.79;100.00;92636.00;5080007;28;20044;-76
2023/06/04 06:08:25;;;;;;;8.95;4.97;;;;;;;12.82;100.00;92632.81;5057551;28;20059;-76
2023/06/04 06:10:51;;;;;;;10.90;4.97;;;;;;;12.84;100.00;92628.03;5053413;28;20498;-76
2023/06/04 06:13:17;;;;;;;13.70;5.75;;;;;;;12.83;100.00;92632.50;5055447;28;20483;-76
2023/06/04 06:15:43;;;;;;;12.00;5.15;;;;;;;12.87;100.00;92632.69;5062948;28;20047;-76
2023/06/04 06:18:09;;;;;;;14.38;5.45;;;;;;;12.90;100.00;92639.97;5072684;28;20050;-76
2023/06/04 06:20:34;;;;;;;11.57;5.80;;;;;;;12.90;100.00;92643.41;5063695;28;20115;-76
2023/06/04 06:23:07;;;;;;;12.65;5.45;;;;;;;12.95;100.00;92637.25;5062131;28;20115;-76
2023/06/04 06:25:35;;;;;;;15.85;6.45;;;;;;;12.98;100.00;92635.88;5064472;28;20385;-76
2023/06/04 06:28:07;;;;;;;12.60;5.97;;;;;;;13.03;100.00;92643.66;5057517;28;20036;-76
2023/06/04 06:30:42;;;;;;;9.77;5.28;;;;;;;13.07;100.00;92645.38;5049081;28;20486;-77
2023/06/04 06:33:08;;;;;;;14.13;5.95;;;;;;;13.09;100.00;92642.47;5084084;28;20035;-76
2023/06/04 06:35:33;;;;;;;10.00;5.35;;;;;;;13.10;100.00;92636.13;5076413;28;20039;-77
2023/06/04 06:37:59;;;;;;;11.43;5.30;;;;;;;13.10;100.00;92644.81;5089238;28;20332;-77
2023/06/04 06:40:24;;;;;;;11.07;5.60;;;;;;;13.18;100.00;92647.78;5082303;28;20044;-76
2023/06/04 06:42:56;;;;;;;12.10;5.32;;;;;;;13.21;100.00;92647.97;5054274;28;20036;-76
2023/06/04 06:45:22;;;;;;;11.47;5.53;;;;;;;13.20;100.00;92650.91;5079497;28;20044;-77
2023/06/04 06:47:47;;;;;;;9.43;5.00;;;;;;;13.26;100.00;92649.69;5060790;28;20044;-77
2023/06/04 06:50:13;;;;;;;8.95;4.88;;;;;;;13.26;100.00;92658.38;5039228;28;20044;-77
2023/06/04 06:52:38;;;;;;;12.23;5.65;;;;;;;13.29;100.00;92655.16;5072109;28;20527;-77
2023/06/04 06:55:05;;;;;;;9.40;5.30;;;;;;;13.37;100.00;92655.53;5064438;28;20064;-77
2023/06/04 06:57:30;;;;;;;11.57;5.63;;;;;;;13.39;100.00;92656.00;5080394;28;20404;-77
2023/06/04 06:59:56;;;;;;;12.50;5.05;;;;;;;13.49;100.00;92659.19;5063248;28;20122;-77
2023/06/04 07:02:22;;;;;;;8.85;4.72;;;;;;;13.54;100.00;92658.28;5082318;28;20036;-77
2023/06/04 07:04:48;;;;;;;10.23;5.22;;;;;;;13.51;100.00;92656.25;5072501;28;20065;-77
2023/06/04 07:07:14;;;;;;;10.30;5.57;;;;;;;13.42;100.00;92661.47;5062303;28;20082;-77
2023/06/04 07:09:40;;;;;;;12.73;6.13;;;;;;;13.62;100.00;92662.84;5059916;28;20083;-76
2023/06/04 07:12:06;;;;;;;13.02;6.40;;;;;;;13.44;100.00;92654.06;5083724;28;20035;-78
2023/06/04 07:14:32;;;;;;;11.43;5.63;;;;;;;13.35;100.00;92668.19;5072291;28;20394;-78
2023/06/04 07:16:57;;;;;;;12.13;5.70;;;;;;;13.35;100.00;92662.94;5086329;28;20051;-77
2023/06/04 07:19:23;;;;;;;11.05;5.47;;;;;;;13.38;100.00;92670.25;5075627;28;20036;-78
2023/06/04 07:21:50;;;;;;;9.90;5.15;;;;;;;13.39;100.00;92669.16;5070061;28;20432;-79
2023/06/04 07:24:15;;;;;;;12.95;6.00;;;;;;;13.46;100.00;92669.50;5073060;28;20028;-77
2023/06/04 07:26:41;;;;;;;10.57;5.35;;;;;;;13.50;100.00;92673.09;5093511;28;20047;-77
2023/06/04 07:29:07;;;;;;;12.15;5.75;;;;;;;13.55;100.00;92667.72;5095649;28;20044;-77
2023/06/04 07:31:32;;;;;;;15.15;5.70;;;;;;;13.62;100.00;92670.72;5095084;28;20038;-77
2023/06/04 07:33:58;;;;;;;11.20;5.80;;;;;;;13.70;100.00;92669.97;5077367;28;20513;-80
2023/06/04 07:36:23;;;;;;;13.80;6.50;;;;;;;13.72;100.00;92681.00;5076140;28;20046;-77
2023/06/04 07:38:49;;;;;;;12.18;5.70;;;;;;;13.77;100.00;92680.09;5049593;28;20032;-77
2023/06/04 07:41:14;;;;;;;13.75;6.40;;;;;;;13.75;100.00;92677.75;5076837;28;20036;-77
2023/06/04 07:43:40;;;;;;;13.23;6.35;;;;;;;13.84;100.00;92680.44;5092335;28;20051;-77
2023/06/04 07:46:06;;;;;;;16.23;6.38;;;;;;;13.79;100.00;92688.47;5074873;28;20116;-77
2023/06/04 07:48:31;;;;;;;12.88;5.80;;;;;;;13.83;100.00;92693.91;5061132;28;20494;-78
2023/06/04 07:50:58;;;;;;;8.75;4.72;;;;;;;13.88;100.00;92689.28;5093228;28;20040;-78
2023/06/04 07:53:24;;;;;;;8.52;4.65;;;;;;;13.92;100.00;92697.38;5079984;28;20040;-78
2023/06/04 07:55:50;;;;;;;9.68;5.00;;;;;;;13.97;100.00;92691.19;5068757;28;20024;-78
2023/06/04 07:58:16;;;;;;;10.52;5.13;;;;;;;14.05;100.00;92693.88;5084371;28;20032;-77
2023/06/04 08:00:41;;;;;;;12.57;5.78;;;;;;;14.16;100.00;92691.75;5082131;28;20050;-77
2023/06/04 08:03:07;;;;;;;12.07;6.68;;;;;;;14.25;100.00;92694.41;5073766;28;20044;-77
2023/06/04 08:05:34;;;;;;;11.63;6.22;;;;;;;14.32;100.00;92700.81;5073870;28;20020;-77
2023/06/04 08:08:00;;;;;;;12.90;6.80;;;;;;;14.34;100.00;92700.50;5087428;28;20032;-77
2023/06/04 08:10:26;;;;;;;16.23;6.70;;;;;;;14.46;100.00;92700.72;5076178;28;20044;-77
2023/06/04 08:12:51;;;;;;;13.43;6.18;;;;;;;14.55;100.00;92704.19;5055839;28;20035;-77
2023/06/04 08:15:17;;;;;;;10.95;5.68;;;;;;;14.70;100.00;92700.38;5072113;28;20044;-77
2023/06/04 08:17:42;;;;;;;10.98;5.82;;;;;;;14.69;100.00;92703.28;5073639;28;20035;-77
2023/06/04 08:20:11;;;;;;;16.38;6.97;;;;;;;14.80;100.00;92701.16;5075535;28;20028;-77
2023/06/04 08:22:37;;;;;;;617.63;21.10;;;;;;;14.41;100.00;92707.97;5056289;28;20118;-77
2023/06/04 08:25:06;;;;;;;14.18;6.75;;;;;;;14.41;100.00;92714.03;5073575;28;20115;-77
2023/06/04 08:27:32;;;;;;;55.97;7.78;;;;;;;14.15;100.00;92719.16;5039215;28;20401;-77
2023/06/04 08:29:57;;;;;;;528.67;17.02;;;;;;;14.03;100.00;92713.69;5057325;28;20040;-77
2023/06/04 08:32:23;;;;;;;15.90;8.27;;;;;;;14.04;100.00;92716.00;5057313;28;20037;-77
2023/06/04 08:34:50;;;;;;;43.38;8.70;;;;;;;14.11;100.00;92720.84;5056774;28;20033;-77
2023/06/04 08:37:17;;;;;;;74.32;10.07;;;;;;;14.09;100.00;92723.75;5073462;28;20048;-78
2023/06/04 08:39:42;;;;;;;72.32;11.00;;;;;;;14.16;100.00;92728.59;5074687;28;20036;-77
2023/06/04 08:42:15;;;;;;;21.75;9.30;;;;;;;14.16;100.00;92725.97;5074335;28;20120;-77
2023/06/04 08:44:43;;;;;;;16.98;8.35;;;;;;;14.30;100.00;92729.31;5073653;28;20021;-77
2023/06/04 08:47:12;;;;;;;19.17;8.65;;;;;;;14.38;100.00;92733.81;5074517;28;20154;-77
2023/06/04 08:49:40;;;;;;;15.82;7.53;;;;;;;14.66;100.00;92736.31;5074342;28;20032;-77
2023/06/04 08:52:06;;;;;;;17.38;8.60;;;;;;;14.83;100.00;92735.56;5056497;28;20031;-77
2023/06/04 08:54:33;;;;;;;17.17;9.23;;;;;;;14.52;100.00;92740.84;5056516;28;20036;-77
2023/06/04 08:57:00;;;;;;;15.25;7.15;;;;;;;14.51;100.00;92734.03;5074307;28;20036;-78
2023/06/04 08:59:27;;;;;;;15.68;7.82;;;;;;;14.47;100.00;92738.34;5056966;28;20036;-77
2023/06/04 09:01:54;;;;;;;17.73;8.88;;;;;;;14.40;100.00;92738.78;5073879;28;20059;-78
2023/06/04 09:04:20;;;;;;;26.85;9.93;;;;;;;14.41;100.00;92744.81;5089520;28;20047;-77
2023/06/04 09:06:47;;;;;;;18.15;8.45;;;;;;;14.40;100.00;92753.81;5093876;28;20070;-77
2023/06/04 09:09:15;;;;;;;16.98;8.05;;;;;;;14.40;100.00;92743.28;5094048;28;20055;-78
2023/06/04 09:12:10;;;;;;;17.15;7.88;;;;;;;14.50;100.00;92749.06;5076664;28;20032;-78
2023/06/04 09:14:36;;;;;;;17.70;8.90;;;;;;;14.52;100.00;92748.75;5056401;28;20411;-78
2023/06/04 09:17:01;;;;;;;20.02;8.80;;;;;;;14.67;100.00;92756.28;5090074;28;20024;-77
2023/06/04 09:19:27;;;;;;;17.15;8.07;;;;;;;14.82;100.00;92754.34;5055895;28;20579;-77
2023/06/04 09:21:55;;;;;;;14.85;6.57;;;;;;;14.96;100.00;92755.00;5073879;28;20322;-78
2023/06/04 09:24:22;;;;;;;14.93;7.93;;;;;;;15.16;100.00;92751.78;5073191;28;20029;-78
2023/06/04 09:26:49;;;;;;;12.45;5.60;;;;;;;15.24;100.00;92747.59;5073754;28;20201;-77
2023/06/04 09:29:15;;;;;;;15.65;8.48;;;;;;;15.20;100.00;92757.22;5073986;28;20043;-77
2023/06/04 09:31:44;;;;;;;18.33;8.55;;;;;;;15.10;100.00;92754.88;5075151;28;20028;-77
2023/06/04 09:34:10;;;;;;;287.15;16.83;;;;;;;15.11;100.00;92765.13;5039755;28;20029;-78
2023/06/04 09:36:37;;;;;;;29.10;11.00;;;;;;;14.85;100.00;92764.25;5056216;28;20028;-77
2023/06/04 09:39:05;;;;;;;20.88;11.68;;;;;;;15.09;100.00;92769.91;5073477;28;20445;-78
2023/06/04 09:41:30;;;;;;;13.77;7.75;;;;;;;15.04;100.00;92766.63;5087562;28;20044;-77
2023/06/04 09:44:03;;;;;;;26.85;8.75;;;;;;;15.24;100.00;92763.41;5080778;28;20031;-78
2023/06/04 09:46:28;;;;;;;25.00;8.50;;;;;;;15.49;100.00;92767.19;5093811;28;20032;-78
2023/06/04 09:49:05;;;;;;;12.18;6.18;;;;;;;15.80;100.00;92761.78;5084524;28;20082;-77
2023/06/04 09:51:31;;;;;;;16.63;7.57;;;;;;;16.05;100.00;92756.03;5080674;28;20028;-78
2023/06/04 09:53:59;;;;;;;92.13;11.57;;;;;;;16.19;100.00;92756.63;5085061;28;20027;-78
2023/06/04 09:56:26;;;;;;;204.27;16.23;;;;;;;15.95;100.00;92757.13;5083816;28;20094;-77
2023/06/04 09:59:02;;;;;;;25.98;12.50;;;;;;;15.72;100.00;92769.72;5073616;28;20115;-77
2023/06/04 10:01:29;;;;;;;17.95;10.23;;;;;;;15.65;100.00;92774.63;5073387;28;20082;-78
2023/06/04 10:04:02;;;;;;;21.60;10.95;;;;;;;15.56;100.00;92775.41;5071003;28;20122;-77
2023/06/04 10:06:29;;;;;;;;;;;;;;;15.55;100.00;92778.38;5092827;28;20038;-77
2023/06/04 10:08:57;;;;;;;24.02;12.82;;;;;;;15.52;100.00;92774.47;5074150;28;19919;-77
2023/06/04 10:11:30;;;;;;;22.23;10.07;;;;;;;15.41;100.00;92771.38;5091963;28;20036;-77
2023/06/04 10:14:02;;;;;;;16.67;8.05;;;;;;;15.58;100.00;92773.25;5092646;28;20378;-77
2023/06/04 10:16:30;;;;;;;20.05;8.57;;;;;;;15.67;100.00;92770.63;5074672;28;20162;-77
2023/06/04 10:18:57;;;;;;;21.80;10.40;;;;;;;15.70;100.00;92770.00;5059251;28;20081;-78
2023/06/04 10:21:23;;;;;;;20.92;10.68;;;;;;;15.60;100.00;92776.38;5093675;28;20098;-78
2023/06/04 10:23:49;;;;;;;26.08;13.07;;;;;;;15.59;100.00;92774.78;5074952;28;20501;-77
2023/06/04 10:26:16;;;;;;;28.58;14.00;;;;;;;15.58;100.00;92778.53;5056572;28;20028;-77
2023/06/04 10:28:42;;;;;;;23.65;11.15;;;;;;;15.43;100.00;92771.06;5079135;28;20436;-78
2023/06/04 10:31:10;;;;;;;18.75;9.70;;;;;;;15.43;100.00;92772.94;5093785;28;20557;-78
2023/06/04 10:33:36;;;;;;;23.33;8.60;;;;;;;15.57;100.00;92770.91;5093350;28;20032;-78
2023/06/04 10:36:16;;;;;;;29.60;11.48;;;;;;;15.88;100.00;92762.88;5093922;28;20039;-78
2023/06/04 10:38:47;;;;;;;14.93;7.32;;;;;;;15.88;100.00;92764.75;5075937;28;20069;-78
2023/06/04 10:41:17;;;;;;;6.85;3.55;;;;;;;15.79;100.00;92770.78;5077144;28;20055;-78
2023/06/04 10:43:45;;;;;;;20.05;8.32;;;;;;;15.83;100.00;92770.97;5059601;28;20282;-78
2023/06/04 10:46:14;;;;;;;14.20;6.68;;;;;;;15.84;100.00;92772.50;5079156;28;20031;-79
2023/06/04 10:48:50;;;;;;;19.83;9.77;;;;;;;16.24;100.00;92772.31;5074032;28;20037;-78
2023/06/04 10:51:29;;;;;;;17.75;8.48;;;;;;;16.17;100.00;92770.16;5074431;28;20166;-78
2023/06/04 10:53:56;;;;;;;25.98;12.82;;;;;;;16.29;100.00;92766.84;5056087;28;20490;-79
2023/06/04 10:56:29;;;;;;;14.70;7.50;;;;;;;16.31;100.00;92758.63;5056909;28;20035;-79
2023/06/04 10:58:55;;;;;;;18.15;9.25;;;;;;;16.44;100.00;92766.34;5092709;28;20117;-77
2023/06/04 11:01:28;;;;;;;22.35;8.68;;;;;;;16.51;100.00;92762.47;5077711;28;20044;-79
2023/06/04 11:03:55;;;;;;;17.73;7.35;;;;;;;16.61;100.00;92762.09;5081020;28;20397;-79
2023/06/04 11:06:22;;;;;;;14.77;6.10;;;;;;;16.73;100.00;92769.38;5077932;28;20034;-79
2023/06/04 11:08:48;;;;;;;13.45;5.97;;;;;;;16.63;100.00;92767.84;5078524;28;20048;-80
2023/06/04 11:11:15;;;;;;;11.40;6.05;;;;;;;16.57;100.00;92771.75;5078048;28;20037;-78
2023/06/04 11:13:42;;;;;;;14.95;5.72;;;;;;;16.67;100.00;92765.38;5060006;28;20034;-79
2023/06/04 11:16:21;;;;;;;10.02;4.97;;;;;;;16.40;100.00;92762.78;5078877;28;20063;-79
2023/06/04 11:18:57;;;;;;;9.25;4.85;;;;;;;16.53;100.00;92768.97;5078979;28;20441;-78
2023/06/04 11:21:23;;;;;;;8.68;3.65;;;;;;;16.67;100.00;92774.06;5060119;28;20120;-78